createdAt,value
2019-06-20T00:01:58.140Z,31.15
2019-06-20T00:04:52.405Z,29.23
2019-06-20T00:07:47.230Z,30.25
2019-06-20T00:10:41.674Z,32.73
2019-06-20T00:13:36.193Z,29.00
2019-06-20T00:16:30.614Z,35.33
2019-06-20T00:19:24.908Z,34.18
2019-06-20T00:22:19.165Z,37.05
2019-06-20T00:25:13.573Z,36.77
2019-06-20T00:28:08.150Z,33.00
2019-06-20T00:31:03.559Z,32.05
2019-06-20T00:33:57.923Z,30.82
2019-06-20T00:36:53.637Z,31.33
2019-06-20T00:39:47.868Z,31.12
2019-06-20T00:42:42.697Z,33.65
2019-06-20T00:45:37.716Z,32.78
2019-06-20T00:48:32.182Z,31.57
2019-06-20T00:51:26.838Z,31.12
2019-06-20T00:54:21.446Z,31.60
2019-06-20T00:57:15.767Z,33.53
2019-06-20T01:00:12.058Z,32.78
2019-06-20T01:03:06.721Z,35.68
2019-06-20T01:06:00.982Z,31.37
2019-06-20T01:08:55.600Z,28.80
2019-06-20T01:11:49.991Z,27.75
2019-06-20T01:14:44.215Z,25.90
2019-06-20T01:17:38.838Z,28.12
2019-06-20T01:20:33.512Z,26.30
2019-06-20T01:23:27.790Z,25.30
2019-06-20T01:26:22.178Z,26.45
2019-06-20T01:29:16.408Z,26.10
2019-06-20T01:32:11.053Z,25.55
2019-06-20T01:35:06.855Z,25.88
2019-06-20T01:38:01.573Z,24.67
2019-06-20T01:40:56.154Z,26.80
2019-06-20T01:43:51.296Z,26.85
2019-06-20T01:46:45.771Z,25.12
2019-06-20T01:49:40.742Z,23.98
2019-06-20T01:52:35.175Z,26.50
2019-06-20T01:55:31.153Z,26.80
2019-06-20T01:58:25.775Z,27.80
2019-06-20T02:01:20.136Z,29.40
2019-06-20T02:04:14.913Z,31.23
2019-06-20T02:07:09.850Z,30.52
2019-06-20T02:10:04.189Z,35.52
2019-06-20T02:12:58.751Z,31.57
2019-06-20T02:15:53.308Z,35.15
2019-06-20T02:18:47.878Z,34.78
2019-06-20T02:21:42.240Z,36.13
2019-06-20T02:24:37.444Z,37.48
2019-06-20T02:27:31.711Z,40.85
2019-06-20T02:30:26.543Z,40.65
2019-06-20T02:33:20.890Z,36.58
2019-06-20T02:36:17.392Z,40.08
2019-06-20T02:39:12.963Z,35.05
2019-06-20T02:42:07.471Z,38.85
2019-06-20T02:45:02.212Z,39.38
2019-06-20T02:47:57.026Z,41.13
2019-06-20T02:50:51.315Z,44.83
2019-06-20T02:53:47.004Z,40.45
2019-06-20T02:56:41.202Z,41.20
2019-06-20T02:59:36.014Z,41.05
2019-06-20T03:02:30.326Z,40.95
2019-06-20T03:05:24.895Z,45.58
2019-06-20T03:08:19.219Z,49.25
2019-06-20T03:11:13.880Z,46.05
2019-06-20T03:14:08.158Z,46.33
2019-06-20T03:17:03.124Z,49.53
2019-06-20T03:19:57.177Z,49.40
2019-06-20T03:22:51.638Z,53.30
2019-06-20T03:25:47.814Z,57.03
2019-06-20T03:28:41.872Z,58.08
2019-06-20T03:31:36.191Z,55.78
2019-06-20T03:34:31.124Z,58.33
2019-06-20T03:37:26.320Z,57.73
2019-06-20T03:40:21.729Z,57.23
2019-06-20T03:43:15.982Z,56.50
2019-06-20T03:46:11.396Z,48.20
2019-06-20T03:49:06.153Z,48.13
2019-06-20T03:52:01.951Z,51.55
2019-06-20T03:54:56.716Z,53.30
2019-06-20T03:57:51.601Z,50.60
2019-06-20T04:00:46.041Z,48.10
2019-06-20T04:03:40.400Z,44.35
2019-06-20T04:06:34.491Z,41.28
2019-06-20T04:09:28.650Z,32.42
2019-06-20T04:12:25.193Z,33.53
2019-06-20T04:15:20.031Z,36.88
2019-06-20T04:18:14.507Z,40.73
2019-06-20T04:21:09.629Z,37.80
2019-06-20T04:24:04.130Z,34.23
2019-06-20T04:26:59.530Z,35.52
2019-06-20T04:29:54.146Z,37.75
2019-06-20T04:32:49.211Z,37.73
2019-06-20T04:35:43.861Z,35.10
2019-06-20T04:38:39.527Z,31.82
2019-06-20T04:41:35.868Z,35.17
2019-06-20T04:44:45.956Z,36.33
2019-06-20T04:47:40.506Z,29.60
2019-06-20T04:50:36.040Z,34.88
2019-06-20T04:53:30.827Z,30.50
2019-06-20T04:56:25.204Z,29.07
2019-06-20T04:59:19.831Z,27.27
2019-06-20T05:02:43.854Z,32.23
2019-06-20T05:05:37.904Z,27.40
2019-06-20T05:08:33.230Z,24.12
2019-06-20T05:11:31.030Z,18.57
2019-06-20T05:14:25.522Z,20.10
2019-06-20T05:17:20.423Z,23.20
2019-06-20T05:20:16.678Z,22.02
2019-06-20T05:23:20.109Z,22.13
2019-06-20T05:26:23.940Z,20.50
2019-06-20T05:29:19.281Z,19.98
2019-06-20T05:32:16.647Z,19.23
2019-06-20T05:35:15.781Z,19.52
2019-06-20T05:38:11.231Z,19.12
2019-06-20T05:41:18.767Z,17.92
2019-06-20T05:44:13.329Z,17.05
2019-06-20T05:47:13.594Z,18.80
2019-06-20T05:50:04.938Z,18.75
2019-06-20T05:52:59.073Z,17.35
2019-06-20T05:55:53.790Z,17.90
2019-06-20T05:58:48.692Z,15.10
2019-06-20T06:01:44.614Z,15.95
2019-06-20T06:04:40.819Z,16.27
2019-06-20T06:07:36.397Z,19.42
2019-06-20T06:10:38.095Z,14.90
2019-06-20T06:13:33.506Z,13.55
2019-06-20T06:16:28.586Z,12.95
2019-06-20T06:19:28.302Z,12.45
2019-06-20T06:22:37.239Z,13.30
2019-06-20T06:25:33.545Z,13.35
2019-06-20T06:28:36.243Z,12.80
2019-06-20T06:31:33.110Z,13.28
2019-06-20T06:34:33.070Z,13.00
2019-06-20T06:37:32.797Z,13.45
2019-06-20T06:40:30.867Z,14.58
2019-06-20T06:43:26.811Z,13.75
2019-06-20T06:46:25.397Z,14.25
2019-06-20T06:49:21.997Z,13.43
2019-06-20T06:52:17.056Z,12.28
2019-06-20T06:55:12.458Z,11.20
2019-06-20T06:58:09.660Z,11.48
2019-06-20T07:01:04.812Z,12.07
2019-06-20T07:04:12.955Z,11.30
2019-06-20T07:07:09.528Z,12.23
2019-06-20T07:10:06.246Z,12.47
2019-06-20T07:13:02.964Z,12.40
2019-06-20T07:16:05.721Z,11.60
2019-06-20T07:19:25.250Z,11.78
2019-06-20T07:22:20.459Z,11.68
2019-06-20T07:25:19.147Z,9.48
2019-06-20T07:28:17.418Z,9.63
2019-06-20T07:31:24.073Z,10.53
2019-06-20T07:34:51.731Z,9.83
2019-06-20T07:41:24.298Z,9.23
2019-06-20T07:44:38.023Z,9.55
2019-06-20T07:47:33.737Z,11.00
2019-06-20T07:50:29.872Z,10.13
2019-06-20T07:53:24.622Z,11.40
2019-06-20T07:56:19.968Z,10.05
2019-06-20T07:59:15.468Z,10.30
2019-06-20T08:02:24.877Z,10.35
2019-06-20T08:05:21.610Z,10.30
2019-06-20T08:08:15.976Z,10.30
2019-06-20T08:11:12.342Z,11.50
2019-06-20T08:14:07.094Z,10.63
2019-06-20T08:17:03.751Z,11.50
2019-06-20T08:19:57.769Z,11.10
2019-06-20T08:22:53.719Z,11.25
2019-06-20T08:25:48.336Z,11.70
2019-06-20T08:28:44.120Z,9.63
2019-06-20T08:31:44.439Z,8.28
2019-06-20T08:34:44.578Z,8.28
2019-06-20T08:37:39.522Z,6.85
2019-06-20T08:40:42.778Z,7.03
2019-06-20T08:43:48.193Z,6.72
2019-06-20T08:46:44.788Z,6.95
2019-06-20T08:49:40.333Z,7.55
2019-06-20T08:52:38.372Z,5.87
2019-06-20T08:55:35.301Z,6.08
2019-06-20T09:18:07.388Z,5.92
2019-06-20T09:21:03.719Z,7.28
2019-06-20T09:24:01.001Z,6.70
2019-06-20T09:27:04.660Z,6.45
2019-06-20T09:30:03.511Z,7.78
2019-06-20T09:33:01.206Z,6.33
2019-06-20T09:36:01.272Z,8.13
2019-06-20T09:39:03.805Z,7.25
2019-06-20T09:41:59.566Z,7.30
2019-06-20T09:44:56.403Z,6.62
2019-06-20T09:47:55.946Z,7.37
2019-06-20T09:50:57.010Z,5.55
2019-06-20T09:53:56.272Z,6.92
2019-06-20T09:56:55.374Z,6.65
2019-06-20T10:00:03.278Z,6.65
2019-06-20T10:02:48.930Z,6.55
2019-06-20T10:06:14.571Z,7.15
2019-06-20T10:09:20.835Z,7.22
2019-06-20T10:12:25.018Z,6.95
2019-06-20T10:15:28.182Z,6.35
2019-06-20T10:18:25.405Z,6.33
2019-06-20T10:21:22.534Z,6.20
2019-06-20T10:24:19.829Z,5.62
2019-06-20T10:27:17.002Z,6.15
2019-06-20T10:30:16.232Z,6.03
2019-06-20T10:33:13.153Z,5.60
2019-06-20T10:36:08.723Z,6.08
2019-06-20T10:39:09.909Z,6.15
2019-06-20T10:42:05.331Z,6.85
2019-06-20T10:45:03.498Z,6.85
2019-06-20T10:48:04.765Z,7.22
2019-06-20T10:51:19.120Z,6.30
2019-06-20T10:54:23.439Z,6.33
2019-06-20T10:57:22.427Z,8.10
2019-06-20T11:00:31.816Z,9.08
2019-06-20T11:03:36.439Z,9.63
2019-06-20T11:06:43.192Z,10.58
2019-06-20T11:09:52.241Z,11.35
2019-06-20T11:12:55.599Z,10.90
2019-06-20T11:15:53.535Z,11.03
2019-06-20T11:18:49.551Z,17.40
2019-06-20T11:21:45.806Z,14.80
2019-06-20T11:24:43.298Z,13.62
2019-06-20T11:27:38.859Z,13.65
2019-06-20T11:30:46.745Z,16.67
2019-06-20T11:33:36.573Z,16.77
2019-06-20T11:36:31.036Z,16.95
2019-06-20T11:39:26.735Z,11.08
2019-06-20T11:42:33.158Z,11.93
2019-06-20T11:45:28.761Z,12.73
2019-06-20T11:48:26.389Z,11.68
2019-06-20T11:51:23.139Z,11.97
2019-06-20T11:54:19.067Z,12.80
2019-06-20T11:57:14.478Z,13.30
2019-06-20T12:00:13.328Z,13.88
2019-06-20T12:03:09.270Z,13.43
2019-06-20T12:06:06.544Z,14.87
2019-06-20T12:09:05.743Z,14.65
2019-06-20T12:12:01.040Z,14.15
2019-06-20T12:14:58.902Z,10.85
2019-06-20T12:17:55.149Z,10.80
2019-06-20T12:20:52.617Z,9.45
2019-06-20T12:23:49.021Z,10.40
2019-06-20T12:26:46.862Z,7.70
2019-06-20T12:29:42.394Z,8.05
2019-06-20T12:32:42.359Z,8.40
2019-06-20T12:35:42.714Z,9.30
2019-06-20T12:38:50.776Z,9.55
2019-06-20T12:41:53.785Z,9.40
2019-06-20T12:44:50.835Z,9.60
2019-06-20T12:48:11.849Z,14.05
2019-06-20T12:51:07.909Z,10.30
2019-06-20T12:54:31.691Z,9.43
2019-06-20T12:57:26.761Z,9.80
2019-06-20T13:00:22.514Z,9.30
2019-06-20T13:03:18.042Z,12.13
2019-06-20T13:06:13.766Z,9.65
2019-06-20T13:09:10.673Z,9.68
2019-06-20T13:12:06.687Z,9.10
2019-06-20T13:15:01.813Z,10.05
2019-06-20T13:17:58.733Z,10.28
2019-06-20T13:20:53.912Z,10.05
2019-06-20T13:23:49.836Z,9.13
2019-06-20T13:26:45.493Z,9.73
2019-06-20T13:29:40.789Z,10.25
2019-06-20T13:32:36.510Z,10.38
2019-06-20T13:35:31.965Z,10.98
2019-06-20T13:38:27.007Z,9.75
2019-06-20T13:41:23.685Z,8.80
2019-06-20T13:44:19.560Z,8.70
2019-06-20T13:47:14.487Z,7.65
2019-06-20T13:50:10.831Z,7.72
2019-06-20T13:53:06.192Z,8.08
2019-06-20T13:56:01.561Z,8.70
2019-06-20T13:58:57.709Z,7.67
2019-06-20T14:02:05.893Z,7.92
2019-06-20T14:04:50.742Z,8.05
2019-06-20T14:07:48.336Z,8.60
2019-06-20T14:10:44.148Z,8.35
2019-06-20T14:13:41.076Z,8.20
2019-06-20T14:16:35.687Z,7.97
2019-06-20T14:19:30.879Z,8.55
2019-06-20T14:22:26.226Z,8.60
2019-06-20T14:25:22.738Z,8.68
2019-06-20T14:28:19.057Z,8.13
2019-06-20T14:31:18.615Z,9.70
2019-06-20T14:34:16.053Z,8.30
2019-06-20T14:37:11.500Z,8.20
2019-06-20T14:40:06.763Z,10.65
2019-06-20T14:43:03.226Z,12.47
2019-06-20T14:45:58.723Z,13.18
2019-06-20T14:48:54.246Z,12.30
2019-06-20T14:51:50.124Z,13.48
2019-06-20T14:54:45.926Z,12.15
2019-06-20T14:57:44.653Z,12.47
2019-06-20T15:00:40.192Z,12.20
2019-06-20T15:03:35.597Z,13.88
2019-06-20T15:06:31.596Z,14.63
2019-06-20T15:09:26.751Z,12.80
2019-06-20T15:12:22.460Z,12.03
2019-06-20T15:15:20.416Z,12.07
2019-06-20T15:18:18.520Z,10.93
2019-06-20T15:21:14.013Z,9.95
2019-06-20T15:24:09.323Z,9.10
2019-06-20T15:27:04.661Z,9.20
2019-06-20T15:29:59.895Z,8.18
2019-06-20T15:33:07.495Z,9.73
2019-06-20T15:35:53.419Z,7.78
2019-06-20T15:38:49.431Z,7.87
2019-06-20T15:41:44.717Z,9.50
2019-06-20T15:44:40.446Z,8.40
2019-06-20T15:47:35.236Z,8.75
2019-06-20T15:50:30.302Z,10.18
2019-06-20T15:53:25.545Z,8.65
2019-06-20T15:56:20.538Z,7.30
2019-06-20T15:59:18.119Z,7.80
2019-06-20T16:02:13.113Z,7.60
2019-06-20T16:05:09.561Z,7.87
2019-06-20T16:08:05.184Z,9.18
2019-06-20T16:11:00.082Z,6.67
2019-06-20T16:13:56.439Z,6.78
2019-06-20T16:16:51.905Z,7.92
2019-06-20T16:19:47.091Z,8.10
2019-06-20T16:22:41.823Z,7.25
2019-06-20T16:25:38.385Z,7.85
2019-06-20T16:28:33.924Z,9.55
2019-06-20T16:31:28.870Z,8.90
2019-06-20T16:34:23.914Z,8.55
2019-06-20T16:37:19.448Z,7.70
2019-06-20T16:40:15.288Z,7.20
2019-06-20T16:43:10.530Z,6.83
2019-06-20T16:46:06.739Z,7.12
2019-06-20T16:49:01.528Z,7.03
2019-06-20T16:51:56.262Z,6.97
2019-06-20T16:54:51.886Z,7.55
2019-06-20T16:57:46.679Z,8.10
2019-06-20T17:00:42.023Z,7.12
2019-06-20T17:03:41.558Z,7.37
2019-06-20T17:06:34.745Z,7.22
2019-06-20T17:09:30.703Z,7.25
2019-06-20T17:12:26.080Z,7.45
2019-06-20T17:15:22.844Z,7.47
2019-06-20T17:18:20.485Z,7.22
2019-06-20T17:21:17.760Z,7.20
2019-06-20T17:24:12.841Z,6.97
2019-06-20T17:27:09.722Z,7.12
2019-06-20T17:30:05.431Z,6.53
2019-06-20T17:33:00.671Z,6.80
2019-06-20T17:35:56.421Z,6.35
2019-06-20T17:38:51.398Z,6.25
2019-06-20T17:41:54.870Z,6.35
2019-06-20T17:44:42.657Z,6.72
2019-06-20T17:47:38.324Z,6.10
2019-06-20T17:50:34.862Z,6.95
2019-06-20T17:53:31.393Z,6.65
2019-06-20T17:56:25.845Z,6.25
2019-06-20T17:59:22.665Z,6.80
2019-06-20T18:02:16.789Z,5.92
2019-06-20T18:05:12.394Z,6.08
2019-06-20T18:08:15.107Z,6.03
2019-06-20T18:11:03.736Z,5.80
2019-06-20T18:13:58.956Z,6.12
2019-06-20T18:16:54.366Z,5.50
2019-06-20T18:19:49.465Z,5.87
2019-06-20T18:22:44.745Z,5.75
2019-06-20T18:25:39.852Z,6.08
2019-06-20T18:28:36.099Z,5.92
2019-06-20T18:31:31.055Z,6.12
2019-06-20T18:34:30.087Z,9.33
2019-06-20T18:37:31.451Z,6.05
2019-06-20T18:40:21.299Z,6.90
2019-06-20T18:43:16.593Z,6.05
2019-06-20T18:46:13.023Z,6.33
2019-06-20T18:49:07.941Z,6.47
2019-06-20T18:52:03.082Z,7.30
2019-06-20T18:54:58.116Z,7.08
2019-06-20T18:57:52.966Z,6.22
2019-06-20T19:00:47.824Z,6.28
2019-06-20T19:03:42.519Z,6.20
2019-06-20T19:06:38.612Z,5.90
2019-06-20T19:09:33.517Z,5.80
2019-06-20T19:12:28.059Z,5.70
2019-06-20T19:15:22.953Z,5.72
2019-06-20T19:18:18.825Z,5.47
2019-06-20T19:21:13.781Z,7.00
2019-06-20T19:24:08.654Z,5.65
2019-06-20T19:27:03.751Z,5.87
2019-06-20T19:29:58.729Z,5.53
2019-06-20T19:32:53.817Z,5.53
2019-06-20T19:35:48.597Z,5.55
2019-06-20T19:38:43.521Z,6.17
2019-06-20T19:41:38.246Z,6.00
2019-06-20T19:44:32.777Z,6.03
2019-06-20T19:47:28.473Z,5.80
2019-06-20T19:50:23.723Z,5.72
2019-06-20T19:53:18.734Z,6.08
2019-06-20T19:56:15.273Z,5.87
2019-06-20T19:59:10.257Z,6.15
2019-06-20T20:02:06.605Z,5.83
2019-06-20T20:05:14.871Z,6.03
2019-06-20T20:07:57.834Z,5.92
2019-06-20T20:10:54.211Z,6.00
2019-06-20T20:13:48.822Z,5.87
2019-06-20T20:16:43.495Z,5.78
2019-06-20T20:19:39.589Z,5.95
2019-06-20T20:22:34.685Z,5.65
2019-06-20T20:25:30.175Z,6.58
2019-06-20T20:28:26.027Z,5.90
2019-06-20T20:31:20.954Z,5.97
2019-06-20T20:34:16.110Z,5.80
2019-06-20T20:37:11.104Z,5.95
2019-06-20T20:40:06.342Z,5.58
2019-06-20T20:43:01.756Z,8.05
2019-06-20T20:45:56.902Z,6.10
2019-06-20T20:48:51.930Z,12.15
2019-06-20T20:51:47.020Z,6.20
2019-06-20T20:54:41.912Z,6.55
2019-06-20T20:57:37.302Z,5.67
2019-06-20T21:00:36.248Z,5.60
2019-06-20T21:03:32.437Z,6.50
2019-06-20T21:06:28.544Z,6.15
2019-06-20T21:09:24.475Z,7.03
2019-06-20T21:12:19.066Z,6.03
2019-06-20T21:15:15.843Z,6.12
2019-06-20T21:18:10.333Z,6.28
2019-06-20T21:21:05.533Z,5.72
2019-06-20T21:24:00.756Z,6.20
2019-06-20T21:26:55.910Z,6.17
2019-06-20T21:29:51.101Z,6.67
2019-06-20T21:32:47.804Z,8.30
2019-06-20T21:35:42.826Z,5.90
2019-06-20T21:38:38.007Z,6.58
2019-06-20T21:41:34.025Z,6.33
2019-06-20T21:44:28.981Z,6.30
2019-06-20T21:47:24.062Z,6.40
2019-06-20T21:50:19.273Z,6.15
2019-06-20T21:53:14.375Z,6.08
2019-06-20T21:56:09.888Z,5.92
2019-06-20T21:59:04.888Z,6.17
2019-06-20T22:02:00.662Z,6.47
2019-06-20T22:04:55.932Z,6.85
2019-06-20T22:07:51.664Z,6.17
2019-06-20T22:10:46.946Z,6.37
2019-06-20T22:13:43.264Z,6.97
2019-06-20T22:16:38.148Z,7.10
2019-06-20T22:19:32.911Z,6.65
2019-06-20T22:22:27.808Z,7.30
2019-06-20T22:25:23.117Z,6.78
2019-06-20T22:28:18.354Z,7.45
2019-06-20T22:31:13.079Z,7.35
2019-06-20T22:34:08.110Z,6.87
2019-06-20T22:37:03.151Z,7.35
2019-06-20T22:39:58.177Z,6.83
2019-06-20T22:42:52.657Z,6.60
2019-06-20T22:45:47.712Z,5.87
2019-06-20T22:48:43.207Z,7.30
2019-06-20T22:51:37.976Z,6.72
2019-06-20T22:54:32.768Z,6.70
2019-06-20T22:57:27.745Z,6.80
2019-06-20T23:00:24.360Z,6.92
2019-06-20T23:03:19.557Z,6.42
2019-06-20T23:06:14.500Z,6.50
2019-06-20T23:09:10.407Z,5.55
2019-06-20T23:12:06.589Z,5.87
2019-06-20T23:15:01.901Z,5.87
2019-06-20T23:17:56.649Z,5.83
2019-06-20T23:21:04.186Z,6.03
2019-06-20T23:23:48.109Z,5.90
2019-06-20T23:26:43.059Z,6.12
2019-06-20T23:29:38.224Z,6.05
2019-06-20T23:32:33.282Z,6.17
2019-06-20T23:35:33.699Z,6.53
2019-06-20T23:38:28.824Z,6.85
2019-06-20T23:41:23.738Z,7.03
2019-06-20T23:44:18.792Z,7.25
2019-06-20T23:47:14.605Z,8.15
2019-06-20T23:50:11.240Z,8.45
2019-06-20T23:53:11.304Z,9.50
2019-06-20T23:56:08.023Z,9.70
2019-06-20T23:59:03.929Z,10.03
